createdAt,value
2023-04-07T00:01:53.158Z,2.60
2023-04-07T00:04:20.993Z,2.60
2023-04-07T00:06:48.392Z,2.50
2023-04-07T00:09:15.698Z,2.50
2023-04-07T00:11:42.910Z,2.50
2023-04-07T00:14:10.055Z,2.40
2023-04-07T00:16:37.250Z,2.40
2023-04-07T00:19:04.423Z,2.40
2023-04-07T00:21:31.619Z,2.40
2023-04-07T00:23:59.497Z,2.40
2023-04-07T00:26:31.601Z,2.40
2023-04-07T00:28:59.793Z,2.30
2023-04-07T00:31:27.435Z,2.30
2023-04-07T00:33:56.088Z,2.30
2023-04-07T00:36:23.706Z,2.30
2023-04-07T00:38:50.939Z,2.20
2023-04-07T00:41:18.068Z,2.20
2023-04-07T00:43:46.247Z,2.20
2023-04-07T00:46:13.542Z,2.10
2023-04-07T00:48:40.844Z,2.10
2023-04-07T00:51:08.069Z,2.10
2023-04-07T00:53:35.298Z,2.10
2023-04-07T00:56:02.818Z,2.10
2023-04-07T00:58:30.004Z,2.10
2023-04-07T01:01:08.815Z,2.10
2023-04-07T01:04:06.162Z,2.00
2023-04-07T01:06:37.671Z,2.10
2023-04-07T01:09:06.784Z,2.00
2023-04-07T01:11:44.519Z,2.00
2023-04-07T01:14:13.715Z,2.00
2023-04-07T01:16:49.178Z,2.00
2023-04-07T01:19:21.504Z,2.00
2023-04-07T01:21:53.169Z,2.00
2023-04-07T01:24:44.886Z,2.00
2023-04-07T01:27:40.776Z,2.00
2023-04-07T01:30:11.181Z,2.00
2023-04-07T01:32:41.810Z,1.90
2023-04-07T01:35:12.821Z,1.90
2023-04-07T01:37:41.218Z,1.90
2023-04-07T01:40:09.347Z,1.90
2023-04-07T01:42:38.365Z,1.90
2023-04-07T01:45:07.244Z,1.90
2023-04-07T01:47:37.652Z,1.90
2023-04-07T01:50:05.968Z,1.90
2023-04-07T01:52:35.154Z,1.90
2023-04-07T01:55:06.431Z,1.90
2023-04-07T01:57:33.836Z,1.90
2023-04-07T02:00:01.103Z,1.90
2023-04-07T02:02:29.489Z,1.90
2023-04-07T02:05:03.338Z,1.90
2023-04-07T02:07:38.927Z,1.90
2023-04-07T02:10:08.705Z,1.90
2023-04-07T02:12:38.455Z,1.90
2023-04-07T02:15:08.918Z,1.90
2023-04-07T02:17:40.324Z,1.90
2023-04-07T02:20:09.609Z,1.90
2023-04-07T02:22:38.918Z,1.90
2023-04-07T02:25:26.287Z,1.90
2023-04-07T02:27:54.212Z,1.90
2023-04-07T02:30:21.650Z,1.90
2023-04-07T02:32:49.018Z,1.90
2023-04-07T02:35:17.015Z,1.90
2023-04-07T02:37:45.579Z,1.80
2023-04-07T02:40:13.298Z,1.80
2023-04-07T02:42:40.891Z,1.80
2023-04-07T02:45:10.230Z,1.80
2023-04-07T02:47:38.440Z,1.80
2023-04-07T02:50:06.664Z,1.80
2023-04-07T02:52:33.921Z,1.80
2023-04-07T02:55:01.447Z,1.80
2023-04-07T02:57:28.626Z,1.80
2023-04-07T02:59:58.294Z,1.80
2023-04-07T03:02:25.897Z,1.80
2023-04-07T03:04:53.558Z,1.70
2023-04-07T03:07:20.865Z,1.70
2023-04-07T03:09:48.002Z,1.70
2023-04-07T03:12:15.192Z,1.70
2023-04-07T03:14:42.461Z,1.70
2023-04-07T03:17:09.786Z,1.70
2023-04-07T03:19:37.040Z,1.60
2023-04-07T03:22:04.260Z,1.60
2023-04-07T03:24:31.568Z,1.60
2023-04-07T03:26:58.778Z,1.50
2023-04-07T03:29:26.033Z,1.50
2023-04-07T03:31:53.200Z,1.50
2023-04-07T03:34:20.563Z,1.50
2023-04-07T03:36:47.820Z,1.40
2023-04-07T03:39:15.009Z,1.40
2023-04-07T03:41:42.202Z,1.40
2023-04-07T03:44:09.446Z,1.50
2023-04-07T03:46:36.672Z,1.40
2023-04-07T03:49:03.930Z,1.50
2023-04-07T03:51:31.181Z,1.50
2023-04-07T03:53:58.242Z,1.50
2023-04-07T03:56:27.486Z,1.50
2023-04-07T03:58:55.984Z,1.50
2023-04-07T04:01:23.267Z,1.40
2023-04-07T04:03:51.968Z,1.40
2023-04-07T04:06:19.459Z,1.40
2023-04-07T04:08:46.703Z,1.40
2023-04-07T04:11:13.868Z,1.40
2023-04-07T04:13:41.245Z,1.40
2023-04-07T04:16:08.708Z,1.40
2023-04-07T04:18:35.970Z,1.40
2023-04-07T04:21:03.245Z,1.50
2023-04-07T04:23:30.447Z,1.50
2023-04-07T04:26:00.361Z,1.60
2023-04-07T04:28:27.474Z,1.60
2023-04-07T04:30:54.703Z,1.70
2023-04-07T04:33:21.965Z,1.70
2023-04-07T04:35:49.178Z,1.70
2023-04-07T04:38:17.355Z,1.80
2023-04-07T04:40:45.003Z,1.80
2023-04-07T04:43:12.142Z,1.80
2023-04-07T04:45:39.518Z,1.90
2023-04-07T04:48:07.136Z,1.90
2023-04-07T04:50:34.295Z,1.90
2023-04-07T04:53:01.560Z,2.00
2023-04-07T04:55:28.792Z,2.00
2023-04-07T04:57:56.419Z,2.00
2023-04-07T05:00:23.750Z,2.10
2023-04-07T05:02:51.217Z,2.20
2023-04-07T05:05:18.722Z,2.20
2023-04-07T05:07:45.997Z,2.30
2023-04-07T05:10:13.359Z,2.30
2023-04-07T05:12:40.547Z,2.40
2023-04-07T05:15:08.299Z,2.50
2023-04-07T05:17:35.546Z,2.60
2023-04-07T05:20:03.412Z,2.60
2023-04-07T05:22:30.882Z,2.70
2023-04-07T05:24:58.241Z,2.80
2023-04-07T05:27:25.865Z,2.90
2023-04-07T05:29:53.157Z,3.00
2023-04-07T05:32:20.513Z,3.10
2023-04-07T05:34:47.797Z,3.20
2023-04-07T05:37:15.030Z,3.30
2023-04-07T05:39:42.215Z,3.40
2023-04-07T05:42:09.412Z,3.50
2023-04-07T05:44:36.660Z,3.60
2023-04-07T05:47:09.095Z,3.70
2023-04-07T05:49:36.650Z,3.80
2023-04-07T05:52:06.121Z,3.90
2023-04-07T05:54:33.304Z,4.00
2023-04-07T05:57:00.449Z,4.10
2023-04-07T05:59:27.879Z,4.20
2023-04-07T06:01:55.100Z,4.30
2023-04-07T06:04:22.461Z,4.30
2023-04-07T06:06:49.617Z,4.40
2023-04-07T06:09:16.806Z,4.40
2023-04-07T06:11:43.890Z,4.50
2023-04-07T06:14:11.100Z,4.60
2023-04-07T06:16:38.261Z,4.60
2023-04-07T06:19:07.471Z,4.70
2023-04-07T06:21:34.860Z,4.70
2023-04-07T06:24:02.088Z,4.70
2023-04-07T06:26:29.329Z,4.80
2023-04-07T06:28:56.753Z,4.80
2023-04-07T06:31:23.936Z,4.80
2023-04-07T06:33:51.507Z,4.90
2023-04-07T06:36:18.818Z,5.00
2023-04-07T06:38:46.292Z,5.10
2023-04-07T06:41:17.140Z,5.10
2023-04-07T06:43:47.206Z,5.20
2023-04-07T06:46:14.802Z,5.30
2023-04-07T06:48:42.001Z,5.40
2023-04-07T06:51:09.288Z,5.50
2023-04-07T06:53:36.673Z,5.70
2023-04-07T06:56:09.690Z,5.90
2023-04-07T06:58:37.786Z,6.00
2023-04-07T07:01:06.454Z,6.20
2023-04-07T07:03:34.331Z,6.40
2023-04-07T07:06:02.077Z,6.50
2023-04-07T07:08:29.973Z,6.60
2023-04-07T07:10:57.486Z,6.70
2023-04-07T07:13:26.753Z,6.80
2023-04-07T07:15:54.375Z,6.90
2023-04-07T07:18:21.684Z,7.00
2023-04-07T07:20:48.971Z,7.10
2023-04-07T07:23:16.024Z,7.20
2023-04-07T07:25:43.278Z,7.30
2023-04-07T07:28:10.439Z,7.40
2023-04-07T07:30:43.494Z,7.50
2023-04-07T07:33:10.568Z,7.60
2023-04-07T07:35:38.149Z,7.80
2023-04-07T07:38:05.327Z,7.90
2023-04-07T07:40:32.786Z,8.10
2023-04-07T07:43:01.285Z,8.30
2023-04-07T07:45:28.425Z,8.40
2023-04-07T07:47:55.702Z,8.50
2023-04-07T07:50:22.900Z,8.60
2023-04-07T07:52:50.058Z,8.70
2023-04-07T07:55:17.117Z,8.90
2023-04-07T07:57:44.302Z,9.00
2023-04-07T08:00:12.248Z,9.10
2023-04-07T08:02:39.986Z,9.30
2023-04-07T08:05:07.723Z,9.40
2023-04-07T08:07:34.997Z,9.60
2023-04-07T08:10:02.335Z,9.70
2023-04-07T08:12:29.446Z,9.80
2023-04-07T08:14:56.583Z,9.90
2023-04-07T08:17:23.909Z,10.10
2023-04-07T08:19:51.011Z,10.20
2023-04-07T08:22:19.853Z,10.30
2023-04-07T08:24:47.692Z,10.40
2023-04-07T08:27:14.901Z,10.50
2023-04-07T08:29:42.054Z,10.50
2023-04-07T08:32:09.158Z,10.60
2023-04-07T08:34:36.296Z,10.80
2023-04-07T08:37:03.455Z,10.90
2023-04-07T08:39:30.487Z,11.00
2023-04-07T08:41:58.721Z,11.10
2023-04-07T08:44:28.676Z,11.20
2023-04-07T08:46:57.742Z,11.30
2023-04-07T08:49:27.614Z,11.40
2023-04-07T08:51:56.959Z,11.50
2023-04-07T08:54:24.774Z,11.60
2023-04-07T08:56:52.723Z,11.70
2023-04-07T08:59:25.555Z,11.80
2023-04-07T09:01:53.923Z,11.90
2023-04-07T09:04:23.225Z,12.00
2023-04-07T09:06:50.554Z,12.10
2023-04-07T09:09:17.836Z,12.20
2023-04-07T09:11:45.082Z,12.30
2023-04-07T09:14:12.193Z,12.40
2023-04-07T09:16:39.666Z,12.40
2023-04-07T09:19:07.465Z,12.50
2023-04-07T09:21:50.541Z,12.60
2023-04-07T09:24:26.126Z,12.70
2023-04-07T09:27:18.958Z,12.80
2023-04-07T09:29:47.946Z,13.00
2023-04-07T09:32:41.568Z,13.10
2023-04-07T09:35:09.627Z,13.10
2023-04-07T09:37:37.504Z,13.20
2023-04-07T09:40:05.215Z,13.30
2023-04-07T09:42:36.192Z,13.40
2023-04-07T09:45:03.932Z,13.40
2023-04-07T09:47:33.111Z,13.50
2023-04-07T09:50:06.859Z,13.50
2023-04-07T09:52:51.103Z,13.60
2023-04-07T09:55:23.800Z,13.80
2023-04-07T09:57:52.126Z,13.90
2023-04-07T10:00:19.765Z,13.80
2023-04-07T10:02:48.282Z,13.60
2023-04-07T10:05:15.559Z,13.60
2023-04-07T10:07:43.712Z,13.70
2023-04-07T10:10:11.693Z,13.70
2023-04-07T10:12:39.215Z,13.80
2023-04-07T10:15:07.067Z,14.10
2023-04-07T10:17:36.409Z,14.40
2023-04-07T10:20:07.815Z,14.50
2023-04-07T10:22:36.933Z,14.40
2023-04-07T10:25:14.837Z,14.30
2023-04-07T10:28:06.442Z,14.20
2023-04-07T10:30:34.512Z,14.20
2023-04-07T10:33:01.672Z,14.20
2023-04-07T10:35:29.925Z,14.30
2023-04-07T10:38:13.822Z,14.40
2023-04-07T10:40:43.116Z,14.50
2023-04-07T10:43:11.622Z,14.40
2023-04-07T10:45:53.843Z,14.70
2023-04-07T10:48:22.108Z,15.10
2023-04-07T10:51:15.450Z,15.40
2023-04-07T10:54:23.323Z,15.50
2023-04-07T10:57:18.562Z,15.40
2023-04-07T11:00:10.761Z,15.20
2023-04-07T11:02:40.208Z,15.00
2023-04-07T11:05:08.025Z,14.90
2023-04-07T11:07:55.925Z,14.70
2023-04-07T11:10:23.495Z,14.70
2023-04-07T11:13:07.888Z,14.70
2023-04-07T11:15:40.366Z,15.00
2023-04-07T11:18:17.356Z,15.40
2023-04-07T11:21:08.619Z,15.70
2023-04-07T11:23:44.209Z,16.00
2023-04-07T11:26:13.577Z,16.40
2023-04-07T11:28:54.560Z,16.60
2023-04-07T11:31:32.064Z,16.50
2023-04-07T11:34:02.360Z,16.40
2023-04-07T11:36:59.672Z,16.30
2023-04-07T11:39:33.825Z,16.00
2023-04-07T11:42:01.413Z,15.70
2023-04-07T11:44:28.573Z,15.50
2023-04-07T11:46:59.513Z,15.30
2023-04-07T11:49:28.696Z,15.20
2023-04-07T11:52:03.843Z,15.10
2023-04-07T11:54:43.989Z,15.00
2023-04-07T11:57:13.165Z,14.90
2023-04-07T11:59:41.787Z,14.90
2023-04-07T12:02:09.881Z,14.90
2023-04-07T12:04:41.077Z,14.90
2023-04-07T12:07:11.967Z,14.90
2023-04-07T12:09:38.940Z,15.00
2023-04-07T12:12:08.397Z,15.20
2023-04-07T12:14:36.755Z,15.40
2023-04-07T12:17:04.580Z,15.60
2023-04-07T12:19:36.409Z,15.60
2023-04-07T12:22:04.132Z,15.60
2023-04-07T12:24:32.725Z,15.70
2023-04-07T12:27:00.268Z,15.80
2023-04-07T12:29:28.141Z,15.70
2023-04-07T12:31:56.594Z,15.70
2023-04-07T12:34:23.734Z,15.60
2023-04-07T12:36:50.751Z,15.60
2023-04-07T12:39:17.811Z,15.60
2023-04-07T12:41:48.825Z,15.70
2023-04-07T12:44:16.837Z,15.80
2023-04-07T12:46:43.979Z,15.90
2023-04-07T12:49:11.187Z,16.00
2023-04-07T12:51:40.272Z,16.10
2023-04-07T12:54:07.693Z,16.20
2023-04-07T12:56:34.740Z,16.30
2023-04-07T12:59:01.761Z,16.40
2023-04-07T13:01:28.843Z,16.60
2023-04-07T13:03:56.506Z,16.50
2023-04-07T13:08:51.863Z,16.30
2023-04-07T13:11:19.040Z,16.10
2023-04-07T13:13:46.256Z,15.90
2023-04-07T13:16:13.470Z,15.70
2023-04-07T13:18:40.468Z,15.60
2023-04-07T13:21:40.632Z,15.50
2023-04-07T13:23:54.585Z,15.40
2023-04-07T13:26:22.458Z,15.30
2023-04-07T13:28:49.552Z,15.20
2023-04-07T13:31:16.958Z,15.30
2023-04-07T13:33:44.255Z,15.30
2023-04-07T13:36:11.294Z,15.50
2023-04-07T13:38:38.391Z,15.80
2023-04-07T13:41:05.535Z,16.30
2023-04-07T13:43:32.559Z,16.70
2023-04-07T13:45:59.617Z,16.90
2023-04-07T13:48:26.676Z,17.20
2023-04-07T13:50:53.745Z,17.60
2023-04-07T13:53:21.799Z,17.90
2023-04-07T13:55:48.997Z,18.00
2023-04-07T13:58:16.992Z,17.80
2023-04-07T14:00:44.000Z,17.50
2023-04-07T14:03:11.380Z,17.20
2023-04-07T14:05:38.634Z,16.90
2023-04-07T14:08:05.822Z,16.60
2023-04-07T14:10:34.089Z,16.50
2023-04-07T14:13:01.696Z,16.30
2023-04-07T14:15:28.768Z,16.30
2023-04-07T14:17:56.063Z,16.20
2023-04-07T14:20:23.862Z,16.10
2023-04-07T14:22:52.498Z,16.20
2023-04-07T14:25:19.616Z,16.20
2023-04-07T14:27:46.699Z,16.30
2023-04-07T14:30:13.749Z,16.30
2023-04-07T14:32:41.042Z,16.20
2023-04-07T14:35:08.566Z,16.10
2023-04-07T14:37:36.290Z,16.00
2023-04-07T14:40:05.290Z,16.00
2023-04-07T14:42:33.600Z,15.90
2023-04-07T14:45:01.977Z,15.90
2023-04-07T14:47:29.121Z,15.80
2023-04-07T14:49:56.137Z,15.80
2023-04-07T14:52:23.179Z,15.80
2023-04-07T14:54:50.198Z,15.70
2023-04-07T14:57:17.369Z,15.70
2023-04-07T14:59:44.626Z,15.70
2023-04-07T15:02:11.737Z,15.60
2023-04-07T15:04:39.000Z,15.60
2023-04-07T15:07:06.753Z,15.50
2023-04-07T15:09:33.795Z,15.40
2023-04-07T15:12:02.324Z,15.40
2023-04-07T15:14:29.804Z,15.30
2023-04-07T15:16:56.879Z,15.20
2023-04-07T15:19:24.105Z,15.10
2023-04-07T15:21:51.125Z,15.00
2023-04-07T15:24:19.810Z,14.90
2023-04-07T15:26:46.995Z,14.80
2023-04-07T15:29:14.053Z,14.80
2023-04-07T15:31:41.281Z,14.70
2023-04-07T15:34:08.391Z,14.50
2023-04-07T15:36:35.480Z,14.40
2023-04-07T15:39:06.667Z,14.20
2023-04-07T15:41:34.188Z,14.10
2023-04-07T15:44:01.847Z,14.00
2023-04-07T15:46:29.215Z,14.00
2023-04-07T15:48:56.357Z,13.90
2023-04-07T15:51:23.748Z,13.80
2023-04-07T15:53:51.012Z,13.70
2023-04-07T15:56:18.340Z,13.60
2023-04-07T15:58:46.178Z,13.50
2023-04-07T16:01:13.289Z,13.50
2023-04-07T16:03:40.713Z,13.40
2023-04-07T16:06:07.872Z,13.40
2023-04-07T16:08:34.915Z,13.30
2023-04-07T16:11:02.136Z,13.30
2023-04-07T16:13:30.340Z,13.20
2023-04-07T16:15:57.730Z,13.20
2023-04-07T16:18:24.942Z,13.20
2023-04-07T16:20:52.140Z,13.10
2023-04-07T16:23:19.215Z,13.10
2023-04-07T16:25:46.343Z,13.00
2023-04-07T16:28:13.476Z,13.00
2023-04-07T16:30:40.726Z,12.90
2023-04-07T16:33:07.942Z,12.80
2023-04-07T16:35:35.220Z,12.80
2023-04-07T16:38:06.319Z,12.70
2023-04-07T16:40:33.607Z,12.60
2023-04-07T16:43:00.775Z,12.60
2023-04-07T16:45:27.953Z,12.50
2023-04-07T16:47:55.125Z,12.40
2023-04-07T16:50:22.270Z,12.40
2023-04-07T16:52:49.414Z,12.30
2023-04-07T16:55:16.604Z,12.20
2023-04-07T16:57:43.698Z,12.20
2023-04-07T17:00:11.667Z,12.10
2023-04-07T17:02:38.924Z,12.00
2023-04-07T17:05:06.687Z,11.90
2023-04-07T17:07:33.903Z,11.80
2023-04-07T17:10:01.387Z,11.80
2023-04-07T17:12:28.477Z,11.70
2023-04-07T17:14:55.568Z,11.60
2023-04-07T17:17:22.756Z,11.60
2023-04-07T17:19:49.969Z,11.60
2023-04-07T17:22:17.052Z,11.50
2023-04-07T17:24:44.123Z,11.50
2023-04-07T17:27:11.853Z,11.50
2023-04-07T17:29:39.139Z,11.50
2023-04-07T17:32:06.883Z,11.40
2023-04-07T17:34:33.972Z,11.40
2023-04-07T17:37:00.989Z,11.30
2023-04-07T17:39:28.086Z,11.30
2023-04-07T17:41:55.140Z,11.20
2023-04-07T17:44:22.285Z,11.20
2023-04-07T17:46:49.971Z,11.20
2023-04-07T17:49:17.435Z,11.10
2023-04-07T17:51:44.746Z,11.10
2023-04-07T17:54:11.818Z,11.00
2023-04-07T17:56:40.089Z,11.00
2023-04-07T17:59:07.335Z,10.90
2023-04-07T18:01:34.656Z,10.90
2023-04-07T18:04:03.327Z,10.80
2023-04-07T18:06:32.518Z,10.80
2023-04-07T18:09:00.929Z,10.70
2023-04-07T18:11:28.578Z,10.70
2023-04-07T18:13:56.669Z,10.60
2023-04-07T18:16:23.940Z,10.60
2023-04-07T18:18:51.533Z,10.60
2023-04-07T18:21:18.786Z,10.50
2023-04-07T18:23:46.209Z,10.50
2023-04-07T18:26:13.708Z,10.50
2023-04-07T18:28:40.940Z,10.40
2023-04-07T18:31:08.377Z,10.40
2023-04-07T18:33:36.475Z,10.40
2023-04-07T18:36:07.331Z,10.40
2023-04-07T18:38:36.085Z,10.30
2023-04-07T18:41:03.939Z,10.20
2023-04-07T18:43:31.647Z,10.20
2023-04-07T18:45:59.030Z,10.20
2023-04-07T18:48:26.654Z,10.20
2023-04-07T18:50:55.310Z,10.10
2023-04-07T18:53:23.856Z,10.00
2023-04-07T18:55:51.572Z,10.00
2023-04-07T18:58:19.493Z,10.00
2023-04-07T19:00:50.124Z,10.00
2023-04-07T19:03:17.782Z,10.00
2023-04-07T19:05:47.658Z,9.90
2023-04-07T19:08:16.205Z,9.90
2023-04-07T19:10:43.912Z,9.90
2023-04-07T19:13:11.211Z,9.90
2023-04-07T19:15:39.546Z,9.80
2023-04-07T19:18:09.929Z,9.80
2023-04-07T19:20:37.151Z,9.80
2023-04-07T19:23:04.305Z,9.80
2023-04-07T19:25:31.949Z,9.80
2023-04-07T19:27:59.229Z,9.80
2023-04-07T19:30:26.742Z,9.80
2023-04-07T19:32:54.151Z,9.70
2023-04-07T19:35:21.729Z,9.70
2023-04-07T19:37:48.990Z,9.70
2023-04-07T19:40:16.691Z,9.70
2023-04-07T19:42:44.022Z,9.60
2023-04-07T19:45:11.796Z,9.60
2023-04-07T19:47:39.299Z,9.60
2023-04-07T19:50:07.132Z,9.60
2023-04-07T19:52:34.430Z,9.50
2023-04-07T19:55:05.625Z,9.50
2023-04-07T19:57:34.238Z,9.50
2023-04-07T20:00:01.490Z,9.50
2023-04-07T20:02:29.212Z,9.40
2023-04-07T20:04:57.415Z,9.40
2023-04-07T20:07:24.621Z,9.40
2023-04-07T20:09:54.159Z,9.40
2023-04-07T20:12:21.544Z,9.50
2023-04-07T20:14:48.756Z,9.40
2023-04-07T20:17:16.072Z,9.40
2023-04-07T20:19:43.254Z,9.40
2023-04-07T20:22:10.630Z,9.40
2023-04-07T20:24:38.905Z,9.40
2023-04-07T20:27:06.136Z,9.30
2023-04-07T20:29:33.397Z,9.30
2023-04-07T20:32:00.539Z,9.30
2023-04-07T20:34:27.742Z,9.20
2023-04-07T20:36:54.950Z,9.20
2023-04-07T20:39:22.296Z,9.20
2023-04-07T20:41:49.505Z,9.20
2023-04-07T20:44:16.941Z,9.10
2023-04-07T20:46:45.517Z,9.10
2023-04-07T20:49:12.971Z,9.10
2023-04-07T20:51:40.313Z,9.10
2023-04-07T20:54:08.026Z,9.00
2023-04-07T20:56:35.753Z,9.00
2023-04-07T20:59:03.010Z,9.00
2023-04-07T21:01:30.250Z,9.00
2023-04-07T21:03:57.683Z,8.90
2023-04-07T21:06:24.820Z,8.90
2023-04-07T21:08:51.957Z,8.90
2023-04-07T21:11:19.173Z,8.90
2023-04-07T21:13:46.484Z,8.80
2023-04-07T21:16:13.802Z,8.80
2023-04-07T21:18:41.086Z,8.80
2023-04-07T21:21:08.754Z,8.80
2023-04-07T21:23:35.940Z,8.70
2023-04-07T21:26:03.578Z,8.70
2023-04-07T21:28:30.868Z,8.70
2023-04-07T21:30:58.543Z,8.70
2023-04-07T21:33:25.852Z,8.70
2023-04-07T21:35:55.272Z,8.60
2023-04-07T21:38:22.632Z,8.70
2023-04-07T21:40:49.882Z,8.60
2023-04-07T21:43:17.152Z,8.60
2023-04-07T21:45:44.438Z,8.60
2023-04-07T21:48:12.046Z,8.60
2023-04-07T21:50:39.347Z,8.60
2023-04-07T21:53:07.800Z,8.60
2023-04-07T21:55:35.587Z,8.60
2023-04-07T21:58:02.733Z,8.60
2023-04-07T22:00:29.975Z,8.60
2023-04-07T22:02:57.507Z,8.60
2023-04-07T22:05:25.077Z,8.50
2023-04-07T22:07:52.785Z,8.60
2023-04-07T22:10:19.957Z,8.60
2023-04-07T22:12:47.132Z,8.60
2023-04-07T22:15:14.265Z,8.50
2023-04-07T22:17:41.992Z,8.50
2023-04-07T22:20:11.600Z,8.60
2023-04-07T22:22:39.384Z,8.60
2023-04-07T22:25:07.143Z,8.50
2023-04-07T22:27:35.549Z,8.60
2023-04-07T22:30:03.793Z,8.50
2023-04-07T22:32:31.083Z,8.40
2023-04-07T22:34:58.416Z,8.30
2023-04-07T22:37:25.698Z,8.20
2023-04-07T22:39:53.040Z,8.10
2023-04-07T22:42:20.269Z,8.00
2023-04-07T22:44:47.381Z,8.00
2023-04-07T22:47:14.657Z,8.00
2023-04-07T22:49:42.269Z,8.00
2023-04-07T22:52:09.479Z,7.90
2023-04-07T22:54:36.737Z,7.90
2023-04-07T22:57:04.278Z,7.90
2023-04-07T22:59:31.916Z,7.90
2023-04-07T23:01:59.154Z,7.90
2023-04-07T23:04:27.471Z,7.90
2023-04-07T23:06:54.691Z,7.80
2023-04-07T23:09:22.391Z,7.80
2023-04-07T23:11:49.596Z,7.80
2023-04-07T23:14:16.800Z,7.80
2023-04-07T23:16:44.076Z,7.80
2023-04-07T23:19:11.999Z,7.80
2023-04-07T23:21:39.828Z,7.80
2023-04-07T23:24:07.122Z,7.80
2023-04-07T23:26:34.328Z,7.80
2023-04-07T23:29:01.472Z,7.80
2023-04-07T23:31:28.778Z,7.80
2023-04-07T23:33:56.060Z,7.80
2023-04-07T23:36:23.287Z,7.80
2023-04-07T23:38:51.107Z,7.80
2023-04-07T23:41:18.561Z,7.80
2023-04-07T23:43:45.869Z,7.80
2023-04-07T23:46:13.853Z,7.80
2023-04-07T23:48:41.886Z,7.80
2023-04-07T23:51:09.121Z,7.80
2023-04-07T23:53:36.575Z,7.80
2023-04-07T23:56:03.929Z,7.80
2023-04-07T23:58:31.123Z,7.80
